createdAt,value
2019-03-11T00:00:13.492Z,12.30
2019-03-11T00:02:40.486Z,12.20
2019-03-11T00:05:07.449Z,12.20
2019-03-11T00:07:34.160Z,12.30
2019-03-11T00:10:00.780Z,12.40
2019-03-11T00:12:27.726Z,12.60
2019-03-11T00:14:54.819Z,12.30
2019-03-11T00:17:21.733Z,12.30
2019-03-11T00:19:48.637Z,12.40
2019-03-11T00:22:15.316Z,12.50
2019-03-11T00:24:42.958Z,12.50
2019-03-11T00:27:09.867Z,12.70
2019-03-11T00:29:36.884Z,12.50
2019-03-11T00:32:03.743Z,12.60
2019-03-11T00:34:31.021Z,12.30
2019-03-11T00:36:57.892Z,12.40
2019-03-11T00:39:25.091Z,12.10
2019-03-11T00:41:51.808Z,11.90
2019-03-11T00:44:19.067Z,11.90
2019-03-11T00:46:46.056Z,11.90
2019-03-11T00:49:13.283Z,12.10
2019-03-11T00:51:40.064Z,12.00
2019-03-11T00:54:07.021Z,11.90
2019-03-11T00:56:33.585Z,12.00
2019-03-11T00:59:00.635Z,12.00
2019-03-11T01:01:27.328Z,12.10
2019-03-11T01:03:54.001Z,12.20
2019-03-11T01:06:20.759Z,12.30
2019-03-11T01:08:47.469Z,12.10
2019-03-11T01:11:14.076Z,11.90
2019-03-11T01:13:41.072Z,11.80
2019-03-11T01:16:07.703Z,11.90
2019-03-11T01:18:34.683Z,12.10
2019-03-11T01:21:01.579Z,12.30
2019-03-11T01:23:28.253Z,11.90
2019-03-11T01:25:54.858Z,12.00
2019-03-11T01:28:21.806Z,12.20
2019-03-11T01:30:48.433Z,12.40
2019-03-11T01:33:15.117Z,12.30
2019-03-11T01:35:42.514Z,12.00
2019-03-11T01:38:10.188Z,11.90
2019-03-11T01:40:37.043Z,11.90
2019-03-11T01:43:04.141Z,11.80
2019-03-11T01:45:31.581Z,11.80
2019-03-11T01:47:58.444Z,11.90
2019-03-11T01:50:25.279Z,11.60
2019-03-11T01:52:52.229Z,11.30
2019-03-11T01:55:19.658Z,11.10
2019-03-11T01:57:46.598Z,11.40
2019-03-11T02:00:13.445Z,11.20
2019-03-11T02:02:41.707Z,11.00
2019-03-11T02:05:08.642Z,10.90
2019-03-11T02:07:35.339Z,10.60
2019-03-11T02:10:01.942Z,10.60
2019-03-11T02:12:28.618Z,10.40
2019-03-11T02:14:55.436Z,10.40
2019-03-11T02:17:23.471Z,10.50
2019-03-11T02:19:50.114Z,10.60
2019-03-11T02:22:17.036Z,10.30
2019-03-11T02:24:43.684Z,10.20
2019-03-11T02:27:11.987Z,10.20
2019-03-11T02:29:38.759Z,10.20
2019-03-11T02:32:05.662Z,10.30
2019-03-11T02:34:32.748Z,10.20
2019-03-11T02:37:00.014Z,10.30
2019-03-11T02:39:26.922Z,10.00
2019-03-11T02:41:53.969Z,10.00
2019-03-11T02:44:20.866Z,10.00
2019-03-11T02:46:47.532Z,9.90
2019-03-11T02:49:14.433Z,10.10
2019-03-11T02:51:42.434Z,10.30
2019-03-11T02:54:09.162Z,10.60
2019-03-11T02:56:36.158Z,10.50
2019-03-11T02:59:03.179Z,10.50
2019-03-11T03:01:29.781Z,10.30
2019-03-11T03:03:56.489Z,10.40
2019-03-11T03:06:23.430Z,10.40
2019-03-11T03:08:50.732Z,10.20
2019-03-11T03:11:17.361Z,10.30
2019-03-11T03:13:44.506Z,10.50
2019-03-11T03:16:12.740Z,10.20
2019-03-11T03:18:39.444Z,10.10
2019-03-11T03:21:06.176Z,9.80
2019-03-11T03:23:32.788Z,10.00
2019-03-11T03:25:59.530Z,9.70
2019-03-11T03:28:26.232Z,9.90
2019-03-11T03:30:52.878Z,9.90
2019-03-11T03:33:19.670Z,10.00
2019-03-11T03:35:46.603Z,10.10
2019-03-11T03:38:13.301Z,9.90
2019-03-11T03:40:39.985Z,10.00
2019-03-11T03:43:06.815Z,9.80
2019-03-11T03:45:33.752Z,9.40
2019-03-11T03:48:00.632Z,9.40
2019-03-11T03:50:27.193Z,9.20
2019-03-11T03:52:53.867Z,9.40
2019-03-11T03:55:20.861Z,9.40
2019-03-11T03:57:47.486Z,9.20
2019-03-11T04:00:14.179Z,9.00
2019-03-11T04:02:42.084Z,9.20
2019-03-11T04:05:08.959Z,9.20
2019-03-11T04:07:35.557Z,9.20
2019-03-11T04:10:02.495Z,9.20
2019-03-11T04:12:29.092Z,9.20
2019-03-11T04:14:55.660Z,9.30
2019-03-11T04:17:22.331Z,9.50
2019-03-11T04:19:49.249Z,9.50
2019-03-11T04:22:16.193Z,9.60
2019-03-11T04:24:43.542Z,9.30
2019-03-11T04:27:10.361Z,9.50
2019-03-11T04:29:37.292Z,9.30
2019-03-11T04:32:04.235Z,9.40
2019-03-11T04:37:08.615Z,9.20
2019-03-11T04:39:44.306Z,9.40
2019-03-11T04:42:14.283Z,9.40
2019-03-11T04:44:49.538Z,9.50
2019-03-11T04:47:21.848Z,9.20
2019-03-11T04:50:00.398Z,9.10
2019-03-11T04:52:35.136Z,8.60
2019-03-11T05:06:26.031Z,8.20
2019-03-11T05:08:54.451Z,8.50
2019-03-11T05:14:19.786Z,8.20
2019-03-11T05:17:14.875Z,8.30
2019-03-11T05:19:53.478Z,8.40
2019-03-11T05:22:15.895Z,8.50
2019-03-11T05:24:49.038Z,8.30
2019-03-11T06:19:49.362Z,8.60
2019-03-11T06:25:15.109Z,8.30
2019-03-11T06:27:45.567Z,8.10
2019-03-11T06:30:22.874Z,8.10
2019-03-11T06:32:52.661Z,8.00
2019-03-11T06:35:24.530Z,8.00
2019-03-11T06:37:50.449Z,8.00
2019-03-11T06:40:17.341Z,8.20
2019-03-11T06:42:58.403Z,8.20
2019-03-11T06:45:21.999Z,8.00
2019-03-11T07:26:32.861Z,9.90
2019-03-11T07:28:58.971Z,9.60
2019-03-11T07:31:28.504Z,9.70
2019-03-11T07:33:57.184Z,9.70
2019-03-11T07:36:24.125Z,10.00
2019-03-11T07:38:51.340Z,9.60
2019-03-11T07:41:21.885Z,9.80
2019-03-11T07:43:51.889Z,10.20
2019-03-11T07:46:24.775Z,10.10
2019-03-11T07:54:17.400Z,10.30
2019-03-11T07:56:45.428Z,10.20
2019-03-11T07:59:19.988Z,10.20
2019-03-11T08:01:49.398Z,10.50
2019-03-11T08:04:20.077Z,10.50
2019-03-11T08:06:47.170Z,10.60
2019-03-11T08:09:14.457Z,10.50
2019-03-11T08:11:41.922Z,10.70
2019-03-11T08:14:10.939Z,10.70
2019-03-11T08:17:00.392Z,10.80
2019-03-11T08:22:49.770Z,11.00
2019-03-11T08:25:02.798Z,11.20
2019-03-11T08:27:51.967Z,11.20
2019-03-11T08:29:59.367Z,11.10
2019-03-11T08:32:27.183Z,10.90
2019-03-11T08:37:51.863Z,11.30
2019-03-11T08:40:25.803Z,11.40
2019-03-11T08:43:23.045Z,11.60
2019-03-11T08:45:26.186Z,11.80
2019-03-11T08:47:54.893Z,12.10
2019-03-11T08:53:13.739Z,12.30
2019-03-11T08:55:53.291Z,12.50
2019-03-11T08:58:23.547Z,12.30
2019-03-11T09:01:02.821Z,12.50
2019-03-11T09:03:32.343Z,12.30
2019-03-11T09:06:05.646Z,12.30
2019-03-11T09:52:44.560Z,12.90
2019-03-11T09:55:22.962Z,12.50
2019-03-11T09:57:52.695Z,12.50
2019-03-11T10:00:26.816Z,12.80
2019-03-11T10:02:55.135Z,12.70
2019-03-11T10:05:27.033Z,12.40
2019-03-11T10:08:04.817Z,12.40
2019-03-11T10:10:31.782Z,12.50
2019-03-11T10:13:18.047Z,12.70
2019-03-11T10:15:48.347Z,12.70
2019-03-11T10:20:52.455Z,13.50
2019-03-11T10:23:31.458Z,13.50
2019-03-11T10:25:52.373Z,13.80
2019-03-11T10:28:51.081Z,14.30
2019-03-11T10:31:00.734Z,14.10
2019-03-11T10:33:35.534Z,13.50
2019-03-11T10:36:06.619Z,13.20
2019-03-11T10:38:38.967Z,13.20
2019-03-11T10:41:10.786Z,13.20
2019-03-11T10:43:40.989Z,13.10
2019-03-11T10:46:31.291Z,13.30
2019-03-11T10:54:40.297Z,13.30
2019-03-11T10:57:09.504Z,13.80
2019-03-11T10:59:36.799Z,13.40
2019-03-11T11:02:05.467Z,13.70
2019-03-11T11:07:22.821Z,13.30
2019-03-11T11:09:58.870Z,12.90
2019-03-11T11:12:32.366Z,13.00
2019-03-11T11:15:16.215Z,13.10
2019-03-11T11:17:44.199Z,13.10
2019-03-11T11:20:20.369Z,13.40
2019-03-11T11:22:42.722Z,13.10
2019-03-11T11:25:18.376Z,13.30
2019-03-11T11:27:42.646Z,13.10
2019-03-11T11:30:12.467Z,13.20
2019-03-11T11:32:40.302Z,13.80
2019-03-11T11:35:09.134Z,13.90
2019-03-11T11:37:37.137Z,14.30
2019-03-11T11:40:13.274Z,14.20
2019-03-11T11:42:41.166Z,14.10
2019-03-11T11:45:08.123Z,14.10
2019-03-11T11:47:39.434Z,13.80
2019-03-11T11:50:04.457Z,14.30
2019-03-11T11:52:32.539Z,14.20
2019-03-11T11:55:00.502Z,14.50
2019-03-11T11:58:03.183Z,15.00
2019-03-11T12:00:19.848Z,15.10
2019-03-11T12:02:45.110Z,15.10
2019-03-11T12:05:14.259Z,15.60
2019-03-11T12:10:30.785Z,15.70
2019-03-11T12:15:57.366Z,14.90
2019-03-11T12:38:00.442Z,11.60
2019-03-11T12:40:37.204Z,11.30
2019-03-11T12:45:44.461Z,11.80
2019-03-11T12:48:31.350Z,12.00
2019-03-11T12:51:08.387Z,11.50
2019-03-11T12:53:40.022Z,11.20
2019-03-11T12:56:07.387Z,10.80
2019-03-11T12:58:41.844Z,10.80
2019-03-11T13:01:05.342Z,10.80
2019-03-11T13:03:32.119Z,10.50
2019-03-11T13:06:17.091Z,10.80
2019-03-11T13:08:38.428Z,10.90
2019-03-11T13:16:33.609Z,10.90
2019-03-11T13:19:00.311Z,11.10
2019-03-11T13:21:27.272Z,11.00
2019-03-11T13:23:54.992Z,10.60
2019-03-11T13:26:24.107Z,10.20
2019-03-11T13:28:52.137Z,10.70
2019-03-11T13:31:27.448Z,10.30
2019-03-11T13:33:56.109Z,10.40
2019-03-11T13:36:25.868Z,10.60
2019-03-11T13:38:55.565Z,10.80
2019-03-11T13:41:27.507Z,10.80
2019-03-11T13:44:14.396Z,10.80
2019-03-11T13:46:46.689Z,10.50
2019-03-11T13:49:13.517Z,10.70
2019-03-11T13:51:51.420Z,10.40
2019-03-11T13:54:20.855Z,10.50
2019-03-11T13:56:47.812Z,10.00
2019-03-11T13:59:35.453Z,9.80
2019-03-11T14:02:15.180Z,9.90
2019-03-11T14:04:41.732Z,9.70
2019-03-11T14:07:12.136Z,9.80
2019-03-11T14:09:45.030Z,10.40
2019-03-11T14:12:18.937Z,10.70
2019-03-11T14:14:47.733Z,10.40
2019-03-11T14:17:28.867Z,9.60
2019-03-11T14:19:44.392Z,9.40
2019-03-11T14:22:15.163Z,9.20
2019-03-11T14:24:44.114Z,9.80
2019-03-11T14:27:11.262Z,10.00
2019-03-11T14:29:41.282Z,9.90
2019-03-11T14:32:16.070Z,10.50
2019-03-11T14:35:01.612Z,10.80
2019-03-11T14:37:25.707Z,10.50
2019-03-11T14:40:03.060Z,10.50
2019-03-11T14:45:30.398Z,9.80
2019-03-11T15:01:49.664Z,9.50
2019-03-11T15:07:18.844Z,9.20
2019-03-11T15:09:51.390Z,9.40
2019-03-11T15:12:17.006Z,9.70
2019-03-11T15:17:52.930Z,10.40
2019-03-11T15:20:15.474Z,10.20
2019-03-11T15:22:51.225Z,9.70
2019-03-11T15:36:23.105Z,9.70
2019-03-11T15:38:54.742Z,8.80
2019-03-11T15:41:27.975Z,9.20
2019-03-11T15:43:56.535Z,9.50
2019-03-11T15:46:40.162Z,9.50
2019-03-11T15:51:50.534Z,9.40
2019-03-11T15:54:23.257Z,9.50
2019-03-11T15:56:54.656Z,9.90
2019-03-11T15:59:34.032Z,9.70
2019-03-11T16:02:06.764Z,9.80
2019-03-11T16:04:41.141Z,9.90
2019-03-11T16:07:38.202Z,9.80
2019-03-11T16:12:33.318Z,9.40
2019-03-11T16:15:00.344Z,9.10
2019-03-11T16:17:30.036Z,8.60
2019-03-11T16:19:58.074Z,8.70
2019-03-11T16:22:26.622Z,8.60
2019-03-11T16:24:56.444Z,8.40
2019-03-11T16:35:30.422Z,9.10
2019-03-11T16:38:06.928Z,8.90
2019-03-11T16:40:36.174Z,9.20
2019-03-11T16:43:03.340Z,8.90
2019-03-11T16:45:33.379Z,9.40
2019-03-11T16:48:06.887Z,9.60
2019-03-11T16:50:36.432Z,9.80
2019-03-11T16:53:03.295Z,9.70
2019-03-11T16:55:30.070Z,9.60
2019-03-11T16:58:07.593Z,9.50
2019-03-11T17:03:18.402Z,9.10
2019-03-11T17:06:00.734Z,9.30
2019-03-11T17:08:22.409Z,9.20
2019-03-11T17:13:56.770Z,9.20
2019-03-11T17:16:32.654Z,9.10
2019-03-11T17:19:02.759Z,8.80
2019-03-11T17:24:27.339Z,8.50
2019-03-11T17:26:58.705Z,8.60
2019-03-11T17:32:23.765Z,8.10
2019-03-11T17:34:55.340Z,7.80
2019-03-11T17:37:25.857Z,8.60
2019-03-11T17:42:52.564Z,8.50
2019-03-11T17:53:40.201Z,8.80
2019-03-11T17:56:09.969Z,8.30
2019-03-11T17:58:47.102Z,8.40
2019-03-11T18:01:17.441Z,8.50
2019-03-11T18:03:51.139Z,8.20
2019-03-11T18:06:17.363Z,7.60
2019-03-11T18:08:47.333Z,7.60
2019-03-11T18:11:21.858Z,7.80
2019-03-11T18:13:55.676Z,8.10
2019-03-11T18:16:29.513Z,8.10
2019-03-11T18:18:58.036Z,8.30
2019-03-11T18:21:27.209Z,8.20
2019-03-11T18:24:12.005Z,8.10
2019-03-11T18:26:54.337Z,8.00
2019-03-11T18:59:26.120Z,6.90
2019-03-11T19:01:53.809Z,7.10
2019-03-11T19:04:20.716Z,7.00
2019-03-11T19:23:35.060Z,7.30
2019-03-11T21:52:32.630Z,4.70
2019-03-11T21:55:27.260Z,5.00
2019-03-11T22:06:07.688Z,5.80
2019-03-11T22:08:35.793Z,6.00
2019-03-11T22:11:49.152Z,6.30
2019-03-11T22:16:36.189Z,6.60
2019-03-11T22:19:20.162Z,6.90
2019-03-11T22:21:47.625Z,7.20
2019-03-11T22:24:14.546Z,7.10
2019-03-11T22:26:48.244Z,7.10
2019-03-11T22:29:12.586Z,7.20
2019-03-11T22:31:40.907Z,7.10
2019-03-11T22:34:14.100Z,6.80
2019-03-11T22:36:43.432Z,6.90
2019-03-11T22:39:17.155Z,7.10
2019-03-11T22:44:36.966Z,7.20
2019-03-11T22:47:14.085Z,7.10
2019-03-11T22:49:38.275Z,6.60
2019-03-11T22:52:06.373Z,6.00
2019-03-11T22:54:40.454Z,6.10
2019-03-11T22:57:18.348Z,5.90
2019-03-11T23:02:40.321Z,6.10
2019-03-11T23:05:10.621Z,5.70
2019-03-11T23:07:42.074Z,5.90
2019-03-11T23:10:09.993Z,5.90
2019-03-11T23:12:40.738Z,6.00
2019-03-11T23:18:04.778Z,5.30
2019-03-11T23:20:36.058Z,5.90
2019-03-11T23:23:08.778Z,6.00
2019-03-11T23:25:34.862Z,6.20
2019-03-11T23:28:01.732Z,6.10
2019-03-11T23:33:16.589Z,5.90
2019-03-11T23:35:54.321Z,6.10
2019-03-11T23:38:22.625Z,6.20
2019-03-11T23:40:53.250Z,6.20
2019-03-11T23:43:28.843Z,6.20
2019-03-11T23:45:55.663Z,6.10
2019-03-11T23:48:28.915Z,5.80
2019-03-11T23:50:55.094Z,5.30
2019-03-11T23:53:27.142Z,5.30
2019-03-11T23:56:05.783Z,5.80
2019-03-11T23:58:45.511Z,5.20
